Time;durP1;ratioP1;P1;durP2;ratioP2;P2;SDS_P1;SDS_P2;PMS_P1;PMS_P2;Temp;Humidity;BMP_temperature;BMP_pressure;BME280_temperature;BME280_humidity;BME280_pressure;Samples;Min_cycle;Max_cycle;Signal;HPM_P1;HPM_P2
2022/04/24 00:02:22;;;;;;;5.93;4.50;;;14.00;99.90;;;;;;5021314;28;20108;-64
2022/04/24 00:04:48;;;;;;;4.68;4.20;;;13.90;99.90;;;;;;5018354;28;20040;-64
2022/04/24 00:07:13;;;;;;;5.40;3.95;;;13.80;99.90;;;;;;5022734;28;20385;-65
2022/04/24 00:09:39;;;;;;;5.38;4.40;;;13.80;99.90;;;;;;5021614;28;20040;-62
2022/04/24 00:12:06;;;;;;;7.43;4.57;;;13.90;99.90;;;;;;5014834;28;20029;-64
2022/04/24 00:14:32;;;;;;;6.30;4.45;;;13.80;99.90;;;;;;5015596;28;20398;-64
2022/04/24 00:16:57;;;;;;;5.85;4.47;;;13.80;99.90;;;;;;5021359;28;20048;-65
2022/04/24 00:19:23;;;;;;;7.68;4.57;;;13.70;99.90;;;;;;5023943;28;20045;-65
2022/04/24 00:21:49;;;;;;;5.40;4.68;;;13.60;99.90;;;;;;5021492;28;20455;-64
2022/04/24 00:24:15;;;;;;;5.10;4.45;;;13.70;99.90;;;;;;5018862;28;20370;-61
2022/04/24 00:26:40;;;;;;;6.57;4.40;;;13.70;99.90;;;;;;5019157;28;20041;-64
2022/04/24 00:29:06;;;;;;;7.35;4.70;;;13.70;99.90;;;;;;5021758;28;20068;-64
2022/04/24 00:31:32;;;;;;;4.82;4.32;;;13.60;99.90;;;;;;5019102;28;20131;-64
2022/04/24 00:33:57;;;;;;;5.13;4.20;;;13.60;99.90;;;;;;5018933;28;20072;-63
2022/04/24 00:36:23;;;;;;;6.57;4.63;;;13.60;99.90;;;;;;5025211;28;20092;-62
2022/04/24 00:38:49;;;;;;;4.65;4.07;;;13.50;99.90;;;;;;5024152;28;20660;-64
2022/04/24 00:41:14;;;;;;;8.27;4.75;;;13.40;99.90;;;;;;5021053;28;20108;-64
2022/04/24 00:43:40;;;;;;;5.07;4.47;;;13.20;99.90;;;;;;5025044;28;20040;-64
2022/04/24 00:46:13;;;;;;;5.40;4.50;;;13.20;99.90;;;;;;5020748;28;20026;-63
2022/04/24 00:48:40;;;;;;;5.13;4.32;;;13.40;99.90;;;;;;5020170;28;20425;-64
2022/04/24 00:51:07;;;;;;;7.05;4.85;;;13.20;99.90;;;;;;5025888;28;20574;-64
2022/04/24 00:53:33;;;;;;;8.48;4.57;;;13.20;99.90;;;;;;5021464;28;20112;-65
2022/04/24 00:55:59;;;;;;;6.80;4.80;;;13.20;99.90;;;;;;5021568;28;20116;-65
2022/04/24 00:58:25;;;;;;;5.13;4.35;;;13.20;99.90;;;;;;5024802;28;20048;-65
2022/04/24 01:00:52;;;;;;;5.82;4.68;;;12.90;99.90;;;;;;5026251;28;20057;-65
2022/04/24 01:03:17;;;;;;;5.78;4.50;;;12.80;99.90;;;;;;5018732;28;20030;-63
2022/04/24 01:05:43;;;;;;;6.13;4.50;;;12.80;99.90;;;;;;5024641;28;20048;-64
2022/04/24 01:08:08;;;;;;;6.13;4.38;;;12.90;99.90;;;;;;5024487;28;20036;-65
2022/04/24 01:10:40;;;;;;;5.72;4.97;;;13.00;99.90;;;;;;5025009;28;20727;-65
2022/04/24 01:13:06;;;;;;;6.03;4.60;;;13.00;99.90;;;;;;5023003;28;20037;-65
2022/04/24 01:15:34;;;;;;;8.15;4.90;;;12.70;99.90;;;;;;5018380;28;20025;-63
2022/04/24 01:18:01;;;;;;;5.32;4.65;;;12.80;99.90;;;;;;5027699;28;20543;-65
2022/04/24 01:20:27;;;;;;;6.10;4.97;;;12.80;99.90;;;;;;5021865;28;20376;-65
2022/04/24 01:22:52;;;;;;;6.40;4.80;;;12.70;99.90;;;;;;5026765;28;20037;-65
2022/04/24 01:25:19;;;;;;;6.45;5.15;;;12.60;99.90;;;;;;5028738;28;20029;-63
2022/04/24 01:27:44;;;;;;;6.85;4.82;;;12.60;99.90;;;;;;5021970;28;20030;-65
2022/04/24 01:30:10;;;;;;;6.10;5.03;;;12.40;99.90;;;;;;5023589;28;20030;-64
2022/04/24 01:32:38;;;;;;;5.65;5.05;;;12.50;99.90;;;;;;5025826;28;20026;-65
2022/04/24 01:35:04;;;;;;;7.38;4.65;;;12.50;99.90;;;;;;5024151;28;20057;-62
2022/04/24 01:37:30;;;;;;;6.88;4.82;;;12.30;99.90;;;;;;5025619;28;20081;-62
2022/04/24 01:39:56;;;;;;;5.80;4.97;;;12.20;99.90;;;;;;5020771;28;20033;-65
2022/04/24 01:42:21;;;;;;;6.25;5.43;;;12.20;99.90;;;;;;5021104;28;20029;-64
2022/04/24 01:44:47;;;;;;;5.78;5.05;;;12.40;99.90;;;;;;5023717;28;20116;-62
2022/04/24 01:47:13;;;;;;;6.00;5.20;;;12.20;99.90;;;;;;5022923;28;20681;-63
2022/04/24 01:49:38;;;;;;;6.10;5.13;;;12.10;99.90;;;;;;5025420;28;20115;-65
2022/04/24 01:52:08;;;;;;;6.50;5.43;;;12.00;99.90;;;;;;5029696;28;20041;-65
2022/04/24 01:54:33;;;;;;;7.25;5.68;;;12.10;99.90;;;;;;5023186;28;20037;-62
2022/04/24 01:56:59;;;;;;;7.28;5.38;;;12.10;99.90;;;;;;5024571;28;20037;-64
2022/04/24 01:59:25;;;;;;;8.25;5.97;;;12.10;99.90;;;;;;5022124;28;20032;-62
2022/04/24 02:01:51;;;;;;;6.80;5.20;;;11.90;99.90;;;;;;5023264;28;20104;-65
2022/04/24 02:04:18;;;;;;;6.60;5.38;;;11.80;99.90;;;;;;5023914;28;20095;-65
2022/04/24 02:06:44;;;;;;;5.95;5.25;;;11.80;99.90;;;;;;5023721;28;20057;-64
2022/04/24 02:09:10;;;;;;;6.55;5.40;;;11.70;99.90;;;;;;5025259;28;20064;-64
2022/04/24 02:11:36;;;;;;;7.07;5.50;;;11.80;99.90;;;;;;5022700;28;20038;-62
2022/04/24 02:14:01;;;;;;;6.70;5.68;;;11.80;99.90;;;;;;5021839;28;20036;-63
2022/04/24 02:16:27;;;;;;;6.82;5.28;;;11.70;99.90;;;;;;5021684;28;20034;-64
2022/04/24 02:18:53;;;;;;;7.00;5.47;;;11.80;99.90;;;;;;5023769;28;20036;-63
2022/04/24 02:21:18;;;;;;;8.10;6.07;;;11.90;99.90;;;;;;5019113;28;20634;-65
2022/04/24 02:23:44;;;;;;;7.25;5.68;;;11.80;99.90;;;;;;5022729;28;20407;-64
2022/04/24 02:26:09;;;;;;;8.40;5.82;;;11.70;99.90;;;;;;5022394;28;20109;-65
2022/04/24 02:28:35;;;;;;;6.72;5.72;;;11.50;99.90;;;;;;5026181;28;20112;-65
2022/04/24 02:31:00;;;;;;;7.22;5.47;;;11.40;99.90;;;;;;5019386;28;20747;-64
2022/04/24 02:33:26;;;;;;;6.60;5.68;;;11.50;99.90;;;;;;5023555;28;20646;-63
2022/04/24 02:35:51;;;;;;;9.10;5.50;;;11.40;99.90;;;;;;5022915;28;20040;-64
2022/04/24 02:38:17;;;;;;;7.78;5.82;;;11.40;99.90;;;;;;5021047;28;20120;-65
2022/04/24 02:40:43;;;;;;;6.50;5.80;;;11.40;99.90;;;;;;5020667;28;20141;-65
2022/04/24 02:43:08;;;;;;;6.72;6.03;;;11.30;99.90;;;;;;5023493;28;20034;-62
2022/04/24 02:45:34;;;;;;;6.05;5.45;;;11.30;99.90;;;;;;5023752;28;20034;-62
2022/04/24 02:47:59;;;;;;;6.03;5.28;;;11.30;99.90;;;;;;5023851;28;20044;-61
2022/04/24 02:50:25;;;;;;;6.07;5.38;;;11.30;99.90;;;;;;5027576;28;20049;-64
2022/04/24 02:52:53;;;;;;;6.53;5.80;;;11.10;99.90;;;;;;5018285;28;20036;-62
2022/04/24 02:55:19;;;;;;;7.07;5.70;;;11.20;99.90;;;;;;5023500;28;20040;-65
2022/04/24 02:57:46;;;;;;;7.43;5.65;;;11.10;99.90;;;;;;5022371;28;20091;-65
2022/04/24 03:00:13;;;;;;;6.63;5.22;;;11.20;99.90;;;;;;5021898;28;20519;-65
2022/04/24 03:02:43;;;;;;;6.53;5.82;;;11.00;99.90;;;;;;5025723;28;20458;-65
2022/04/24 03:05:17;;;;;;;6.22;5.60;;;10.90;99.90;;;;;;5024607;28;20600;-63
2022/04/24 03:07:42;;;;;;;9.65;5.60;;;11.00;99.90;;;;;;5018708;28;20033;-62
2022/04/24 03:10:09;;;;;;;6.30;5.63;;;10.90;99.90;;;;;;5022898;28;20079;-63
2022/04/24 03:12:36;;;;;;;7.00;6.00;;;10.90;99.90;;;;;;5024059;28;20037;-62
2022/04/24 03:15:03;;;;;;;8.13;6.05;;;11.00;99.90;;;;;;5019038;28;20484;-64
2022/04/24 03:17:31;;;;;;;6.55;5.90;;;10.90;99.90;;;;;;5024427;28;20026;-63
2022/04/24 03:19:56;;;;;;;8.50;6.25;;;10.80;99.90;;;;;;5022268;28;20547;-64
2022/04/24 03:22:22;;;;;;;6.72;6.00;;;10.70;99.90;;;;;;5018747;28;20026;-64
2022/04/24 03:24:47;;;;;;;6.65;5.93;;;10.70;99.90;;;;;;5023400;28;20026;-64
2022/04/24 03:27:13;;;;;;;7.68;6.28;;;10.60;99.90;;;;;;5019899;28;20144;-62
2022/04/24 03:29:40;;;;;;;7.25;6.07;;;10.50;99.90;;;;;;5020259;28;20029;-65
2022/04/24 03:32:06;;;;;;;7.53;6.47;;;10.60;99.90;;;;;;5023565;28;20068;-63
2022/04/24 03:34:31;;;;;;;7.07;6.30;;;10.40;99.90;;;;;;5021677;28;20448;-63
2022/04/24 03:36:57;;;;;;;6.93;5.97;;;10.40;99.90;;;;;;5018488;28;20116;-64
2022/04/24 03:39:23;;;;;;;8.27;6.85;;;10.50;99.90;;;;;;5020818;28;20043;-64
2022/04/24 03:41:48;;;;;;;7.90;6.97;;;10.50;99.90;;;;;;5021308;28;20047;-62
2022/04/24 03:44:14;;;;;;;7.55;6.72;;;10.40;99.90;;;;;;5019503;28;20148;-65
2022/04/24 03:46:39;;;;;;;10.80;7.25;;;10.50;99.90;;;;;;5020003;28;20037;-65
2022/04/24 03:49:05;;;;;;;7.53;6.68;;;10.50;99.90;;;;;;5021352;28;20037;-65
2022/04/24 03:51:31;;;;;;;8.27;7.22;;;10.30;99.90;;;;;;5022443;28;20045;-64
2022/04/24 03:53:56;;;;;;;8.25;7.13;;;10.30;99.90;;;;;;5020707;28;20049;-62
2022/04/24 03:56:22;;;;;;;8.85;7.93;;;10.20;99.90;;;;;;5020073;28;20056;-64
2022/04/24 03:58:47;;;;;;;8.93;7.55;;;10.20;99.90;;;;;;5023828;28;20036;-65
2022/04/24 04:01:13;;;;;;;8.85;7.55;;;10.20;99.90;;;;;;5025701;28;20393;-64
2022/04/24 04:03:38;;;;;;;8.93;6.90;;;10.20;99.90;;;;;;5017618;28;20038;-64
2022/04/24 04:06:04;;;;;;;8.90;7.25;;;10.20;99.90;;;;;;5022308;28;20048;-64
2022/04/24 04:08:30;;;;;;;8.82;7.30;;;10.20;99.90;;;;;;5020240;28;20048;-64
2022/04/24 04:10:55;;;;;;;9.73;7.57;;;10.10;99.90;;;;;;5025214;28;20036;-65
2022/04/24 04:13:21;;;;;;;8.80;7.70;;;10.00;99.90;;;;;;5020750;28;20044;-65
2022/04/24 04:15:46;;;;;;;11.85;8.00;;;10.00;99.90;;;;;;5017438;28;20029;-64
2022/04/24 04:18:12;;;;;;;9.23;7.78;;;10.00;99.90;;;;;;5024172;28;20618;-64
2022/04/24 04:20:37;;;;;;;10.43;8.05;;;10.10;99.90;;;;;;5023319;28;20026;-64
2022/04/24 04:23:03;;;;;;;10.82;7.95;;;10.20;99.90;;;;;;5023276;28;20041;-65
2022/04/24 04:25:29;;;;;;;11.27;8.23;;;10.10;99.90;;;;;;5021674;28;20068;-64
2022/04/24 04:27:55;;;;;;;9.93;7.80;;;10.00;99.90;;;;;;5018435;28;20032;-62
2022/04/24 04:30:21;;;;;;;10.27;8.55;;;10.00;99.90;;;;;;5022569;28;20030;-61
2022/04/24 04:32:47;;;;;;;10.10;7.28;;;9.90;99.90;;;;;;5024140;28;20116;-64
2022/04/24 04:35:13;;;;;;;8.80;7.90;;;10.00;99.90;;;;;;5021426;28;20172;-62
2022/04/24 04:37:42;;;;;;;10.23;8.25;;;10.00;99.90;;;;;;5028286;28;20057;-64
2022/04/24 04:40:10;;;;;;;9.50;7.93;;;10.00;99.90;;;;;;5021184;28;20072;-64
2022/04/24 04:42:36;;;;;;;9.63;7.93;;;9.90;99.90;;;;;;5022951;28;20026;-62
2022/04/24 04:45:03;;;;;;;9.98;7.50;;;9.90;99.90;;;;;;5026692;28;20025;-65
2022/04/24 04:47:29;;;;;;;10.25;7.50;;;9.90;99.90;;;;;;5022312;28;20547;-64
2022/04/24 04:49:55;;;;;;;9.98;8.25;;;10.00;99.90;;;;;;5027373;28;20018;-65
2022/04/24 04:52:22;;;;;;;10.43;7.32;;;10.00;99.90;;;;;;5028444;28;20372;-65
2022/04/24 04:54:48;;;;;;;9.15;7.75;;;9.90;99.90;;;;;;5019471;28;20037;-64
2022/04/24 04:57:14;;;;;;;8.80;7.10;;;9.80;99.90;;;;;;5025590;28;20017;-64
2022/04/24 04:59:40;;;;;;;10.90;7.47;;;9.80;99.90;;;;;;5021656;28;20025;-60
2022/04/24 05:02:05;;;;;;;9.27;7.75;;;9.90;99.90;;;;;;5023412;28;20056;-64
2022/04/24 05:04:31;;;;;;;8.55;7.65;;;9.90;99.90;;;;;;5024636;28;20028;-64
2022/04/24 05:06:56;;;;;;;9.57;7.32;;;9.80;99.90;;;;;;5024271;28;20025;-64
2022/04/24 05:09:22;;;;;;;9.82;7.78;;;9.90;99.90;;;;;;5023428;28;20022;-64
2022/04/24 05:11:47;;;;;;;11.43;7.57;;;9.90;99.90;;;;;;5025280;28;20167;-63
2022/04/24 05:14:13;;;;;;;10.23;7.53;;;9.90;99.90;;;;;;5018919;28;20033;-64
2022/04/24 05:16:38;;;;;;;8.55;7.65;;;10.00;99.90;;;;;;5022462;28;20115;-62
2022/04/24 05:19:07;;;;;;;10.65;6.97;;;10.20;99.90;;;;;;5022127;28;20034;-62
2022/04/24 05:21:33;;;;;;;9.18;7.13;;;10.00;99.90;;;;;;5024139;28;20021;-62
2022/04/24 05:24:00;;;;;;;9.13;7.40;;;10.10;99.90;;;;;;5021688;28;20040;-65
2022/04/24 05:26:26;;;;;;;9.70;7.60;;;10.20;99.90;;;;;;5023155;28;20028;-64
2022/04/24 05:28:52;;;;;;;8.65;6.72;;;10.30;99.90;;;;;;5021407;28;20099;-63
2022/04/24 05:31:18;;;;;;;9.70;7.22;;;10.50;99.90;;;;;;5024309;28;20537;-63
2022/04/24 05:33:44;;;;;;;10.90;6.28;;;10.40;99.90;;;;;;5022601;28;20030;-63
2022/04/24 05:36:09;;;;;;;11.70;7.75;;;10.30;99.90;;;;;;5025670;28;20301;-61
2022/04/24 05:38:35;;;;;;;9.60;7.03;;;10.40;99.90;;;;;;5024089;28;20108;-58
2022/04/24 05:41:00;;;;;;;8.35;7.25;;;10.40;99.90;;;;;;5027493;28;20037;-60
2022/04/24 05:43:26;;;;;;;10.50;7.30;;;10.30;99.90;;;;;;5026350;28;20103;-60
2022/04/24 05:45:52;;;;;;;8.80;6.95;;;10.30;99.90;;;;;;5024041;28;20029;-61
2022/04/24 05:48:18;;;;;;;8.55;6.95;;;10.50;99.90;;;;;;5022415;28;20037;-61
2022/04/24 05:50:44;;;;;;;10.35;6.82;;;10.60;99.90;;;;;;5030081;28;20505;-60
2022/04/24 05:53:10;;;;;;;7.78;6.45;;;10.60;99.90;;;;;;5023640;28;20507;-62
2022/04/24 05:55:36;;;;;;;8.32;6.85;;;10.60;99.90;;;;;;5025765;28;20029;-59
2022/04/24 05:58:02;;;;;;;11.00;7.10;;;10.70;99.90;;;;;;5021872;28;20025;-60
2022/04/24 06:00:28;;;;;;;10.27;7.10;;;10.60;99.90;;;;;;5024329;28;20026;-61
2022/04/24 06:02:54;;;;;;;8.50;6.93;;;10.80;99.90;;;;;;5022853;28;20041;-61
2022/04/24 06:05:20;;;;;;;10.50;7.05;;;10.60;99.90;;;;;;5021715;28;20029;-59
2022/04/24 06:07:45;;;;;;;10.70;6.55;;;10.60;99.90;;;;;;5028914;28;20052;-60
2022/04/24 06:10:11;;;;;;;9.63;6.82;;;10.90;99.90;;;;;;5027685;28;20091;-59
2022/04/24 06:12:48;;;;;;;8.25;6.18;;;11.00;99.90;;;;;;5031940;28;20565;-62
2022/04/24 06:15:20;;;;;;;10.60;6.72;;;10.90;99.90;;;;;;5020637;28;20064;-60
2022/04/24 06:17:47;;;;;;;9.40;6.65;;;10.60;99.90;;;;;;5025278;28;20077;-60
2022/04/24 06:20:13;;;;;;;9.10;7.00;;;10.90;99.90;;;;;;5025654;28;20021;-62
2022/04/24 06:22:49;;;;;;;8.05;6.60;;;11.10;99.90;;;;;;5024017;28;20056;-60
2022/04/24 06:25:26;;;;;;;8.13;6.53;;;10.90;99.90;;;;;;5029901;28;20045;-62
2022/04/24 06:27:53;;;;;;;9.50;6.32;;;11.00;99.90;;;;;;5026140;28;20049;-60
2022/04/24 06:30:21;;;;;;;7.80;6.43;;;11.00;99.90;;;;;;5031497;28;20807;-60
2022/04/24 06:32:47;;;;;;;9.57;6.90;;;11.10;99.90;;;;;;5027686;28;20107;-60
2022/04/24 06:35:14;;;;;;;13.52;6.75;;;11.00;99.90;;;;;;5026386;28;20527;-59
2022/04/24 06:37:43;;;;;;;8.48;6.32;;;11.20;99.90;;;;;;5025827;28;20029;-62
2022/04/24 06:40:10;;;;;;;8.35;6.70;;;11.30;99.90;;;;;;5024631;28;20480;-58
2022/04/24 06:42:53;;;;;;;10.48;6.38;;;11.40;99.90;;;;;;5027283;28;20052;-59
2022/04/24 06:45:29;;;;;;;7.55;6.05;;;11.30;99.90;;;;;;5027859;28;20394;-60
2022/04/24 06:47:57;;;;;;;9.77;6.10;;;11.20;99.90;;;;;;5030266;28;20025;-61
2022/04/24 06:50:23;;;;;;;10.68;6.50;;;11.40;99.90;;;;;;5027167;28;20653;-62
2022/04/24 06:53:09;;;;;;;8.52;6.75;;;11.50;99.90;;;;;;5026618;28;20345;-60
2022/04/24 06:55:41;;;;;;;8.38;6.78;;;11.70;99.90;;;;;;5030445;28;20083;-61
2022/04/24 06:58:08;;;;;;;8.00;6.70;;;11.80;99.90;;;;;;5028349;28;20124;-59
2022/04/24 07:00:36;;;;;;;8.80;6.75;;;11.60;99.90;;;;;;5030194;28;20087;-62
2022/04/24 07:03:12;;;;;;;14.13;7.70;;;11.80;99.90;;;;;;5026212;28;20086;-61
2022/04/24 07:05:39;;;;;;;10.32;6.88;;;11.80;99.90;;;;;;5022406;28;20098;-60
2022/04/24 07:08:05;;;;;;;10.52;7.07;;;12.00;99.90;;;;;;5026379;28;20080;-60
2022/04/24 07:10:31;;;;;;;9.10;6.38;;;12.10;99.90;;;;;;5024897;28;20049;-60
2022/04/24 07:12:56;;;;;;;8.02;6.88;;;12.20;99.90;;;;;;5024570;28;20034;-60
2022/04/24 07:15:23;;;;;;;9.63;6.85;;;11.80;99.90;;;;;;5019550;28;20037;-62
2022/04/24 07:17:50;;;;;;;10.68;6.85;;;12.00;99.90;;;;;;5021825;28;20478;-61
2022/04/24 07:20:20;;;;;;;8.23;7.00;;;12.20;99.90;;;;;;5020426;28;20022;-60
2022/04/24 07:22:53;;;;;;;9.32;7.07;;;12.30;99.90;;;;;;5023452;28;20535;-61
2022/04/24 07:25:23;;;;;;;7.75;6.57;;;12.40;99.90;;;;;;5025394;28;20025;-61
2022/04/24 07:27:49;;;;;;;12.75;7.22;;;12.60;99.90;;;;;;5018252;28;20056;-61
2022/04/24 07:30:16;;;;;;;9.43;7.25;;;12.70;99.90;;;;;;5024609;28;20631;-60
2022/04/24 07:32:48;;;;;;;7.90;6.65;;;12.80;99.90;;;;;;5020653;28;20026;-61
2022/04/24 07:35:19;;;;;;;9.15;6.90;;;12.70;99.90;;;;;;5023632;28;20030;-59
2022/04/24 07:37:46;;;;;;;11.18;7.30;;;12.90;99.90;;;;;;5023973;28;20520;-61
2022/04/24 07:40:14;;;;;;;9.57;7.28;;;13.00;99.90;;;;;;5023959;28;20022;-61
2022/04/24 07:42:51;;;;;;;10.93;6.72;;;13.00;99.90;;;;;;5025664;28;20497;-62
2022/04/24 07:45:28;;;;;;;8.32;6.60;;;13.00;99.90;;;;;;5021955;28;20029;-59
2022/04/24 07:47:55;;;;;;;8.18;6.68;;;12.90;99.90;;;;;;5027666;28;20079;-60
2022/04/24 07:50:23;;;;;;;10.10;7.20;;;12.80;99.90;;;;;;5023136;28;20062;-61
2022/04/24 07:52:49;;;;;;;10.02;6.82;;;12.80;99.90;;;;;;5019159;28;20025;-60
2022/04/24 07:55:17;;;;;;;7.60;6.38;;;12.70;99.90;;;;;;5016077;28;20025;-61
2022/04/24 07:57:44;;;;;;;8.57;6.63;;;13.00;99.90;;;;;;5019087;28;20041;-61
2022/04/24 08:00:10;;;;;;;8.25;6.47;;;13.00;99.90;;;;;;5023620;28;20504;-61
2022/04/24 08:03:13;;;;;;;10.40;6.13;;;13.20;99.90;;;;;;5025738;28;20448;-61
2022/04/24 08:05:46;;;;;;;8.20;6.95;;;13.30;99.90;;;;;;5025070;28;20127;-62
2022/04/24 08:08:17;;;;;;;8.35;6.90;;;13.40;99.90;;;;;;5021130;28;20513;-61
2022/04/24 08:10:47;;;;;;;10.73;7.20;;;13.40;99.90;;;;;;5021989;28;20432;-62
2022/04/24 08:13:13;;;;;;;9.82;7.40;;;13.30;99.90;;;;;;5024072;28;20030;-62
2022/04/24 08:15:39;;;;;;;12.48;7.43;;;13.40;99.90;;;;;;5019233;28;20026;-61
2022/04/24 08:18:05;;;;;;;7.97;6.95;;;13.60;99.90;;;;;;5019041;28;20037;-61
2022/04/24 08:20:32;;;;;;;11.75;7.10;;;13.60;99.90;;;;;;5022363;28;20025;-59
2022/04/24 08:22:59;;;;;;;8.20;6.60;;;13.60;99.90;;;;;;5021043;28;20033;-62
2022/04/24 08:25:26;;;;;;;9.43;7.05;;;;;;;;;;5027318;28;20370;-61
2022/04/24 08:27:53;;;;;;;10.38;7.57;;;;;;;;;;5022286;28;20373;-62
2022/04/24 08:30:19;;;;;;;10.57;7.80;;;;;;;;;;5023855;28;20047;-59
2022/04/24 08:32:45;;;;;;;9.05;7.85;;;;;;;;;;5023750;28;20059;-61
2022/04/24 08:35:13;;;;;;;10.05;7.22;;;;;;;;;;5020471;28;20273;-61
2022/04/24 08:37:39;;;;;;;9.30;6.93;;;;;;;;;;5021162;28;20377;-61
2022/04/24 08:40:06;;;;;;;10.25;7.80;;;;;;;;;;5028509;28;20026;-60
2022/04/24 08:42:33;;;;;;;9.57;7.47;;;;;;;;;;5029434;28;20098;-62
2022/04/24 08:44:59;;;;;;;11.43;7.65;;;;;;;;;;5026886;28;20128;-61
2022/04/24 08:47:25;;;;;;;8.25;7.28;;;;;;;;;;5028499;28;20495;-60
2022/04/24 08:49:55;;;;;;;11.50;7.47;;;;;;;;;;5021762;28;20124;-62
2022/04/24 08:52:22;;;;;;;10.98;8.38;;;;;;;;;;5021819;28;20484;-62
2022/04/24 08:54:49;;;;;;;10.63;6.88;;;;;;;;;;5023553;28;20039;-61
2022/04/24 08:57:15;;;;;;;9.05;7.88;;;;;;;;;;5022897;28;20107;-61
2022/04/24 08:59:41;;;;;;;11.70;7.97;;;;;;;;;;5025526;28;20239;-61
2022/04/24 09:02:11;;;;;;;8.07;6.82;;;;;;;;;;5021031;28;20029;-60
2022/04/24 09:04:37;;;;;;;8.75;7.10;;;;;;;;;;5022935;28;20029;-60
2022/04/24 09:07:04;;;;;;;10.70;7.45;;;;;;;;;;5025351;28;20088;-63
2022/04/24 09:09:34;;;;;;;8.27;7.38;;;;;;;;;;5023556;28;20079;-63
2022/04/24 09:12:06;;;;;;;10.93;6.80;;;;;;;;;;5024499;28;20029;-63
2022/04/24 09:14:32;;;;;;;15.85;11.75;;;;;;;;;;5025089;28;20044;-63
2022/04/24 09:17:01;;;;;;;11.35;7.82;;;;;;;;;;5025679;28;20029;-65
2022/04/24 09:19:27;;;;;;;8.85;7.53;;;;;;;;;;5026124;28;20041;-61
2022/04/24 09:21:54;;;;;;;8.90;8.00;;;;;;;;;;5024337;28;20047;-64
2022/04/24 09:24:20;;;;;;;8.52;7.55;;;;;;;;;;5023420;28;20017;-65
2022/04/24 09:27:05;;;;;;;9.77;8.45;;;;;;;;;;5028226;28;20041;-66
2022/04/24 09:29:31;;;;;;;10.13;7.40;;;;;;;;;;5026092;28;20021;-67
2022/04/24 09:31:57;;;;;;;9.98;7.90;;;;;;;;;;5025989;28;20109;-62
2022/04/24 09:34:29;;;;;;;9.40;8.40;;;;;;;;;;5025887;28;20036;-66
2022/04/24 09:37:03;;;;;;;10.80;7.82;;;;;;;;;;5023805;28;20026;-64
2022/04/24 09:39:29;;;;;;;10.00;8.50;;;;;;;;;;5024654;28;20078;-64
2022/04/24 09:42:22;;;;;;;10.32;8.57;;;;;;;;;;5019461;28;20025;-65
2022/04/24 09:44:52;;;;;;;10.73;8.65;;;;;;;;;;5025762;28;20040;-65
2022/04/24 09:47:19;;;;;;;11.50;8.57;;;;;;;;;;5025116;28;20040;-65
2022/04/24 09:49:47;;;;;;;8.82;7.80;;;;;;;;;;5027120;28;20116;-65
2022/04/24 09:52:19;;;;;;;11.02;8.68;;;;;;;;;;5027092;28;20021;-65
2022/04/24 09:54:47;;;;;;;9.88;7.88;;;;;;;;;;5025788;28;20542;-65
2022/04/24 09:57:13;;;;;;;11.20;8.80;;;;;;;;;;5027134;28;20461;-65
2022/04/24 09:59:41;;;;;;;13.80;9.13;;;;;;;;;;5024120;28;20086;-65
2022/04/24 10:02:07;;;;;;;10.63;7.90;;;;;;;;;;5025268;28;20033;-65
2022/04/24 10:04:38;;;;;;;11.02;8.10;;;;;;;;;;5015855;28;20029;-62
2022/04/24 10:07:05;;;;;;;9.45;8.45;;;;;;;;;;5017492;28;20037;-64
2022/04/24 10:09:33;;;;;;;10.10;8.55;;;;;;;;;;5026671;28;20041;-64
2022/04/24 10:12:02;;;;;;;9.90;8.30;;;;;;;;;;5021729;28;20424;-64
2022/04/24 10:14:28;;;;;;;11.05;9.00;;;;;;;;;;5023520;28;20078;-62
2022/04/24 10:17:06;;;;;;;14.32;8.05;;;;;;;;;;5021240;28;20040;-61
2022/04/24 10:19:51;;;;;;;10.05;9.05;;;;;;;;;;5028261;28;20013;-60
2022/04/24 10:22:36;;;;;;;13.50;9.23;;;;;;;;;;5027946;28;20075;-64
2022/04/24 10:25:03;;;;;;;12.52;9.20;;;;;;;;;;5028161;28;20104;-64
2022/04/24 10:27:45;;;;;;;11.55;8.93;;;;;;;;;;5028818;28;20124;-61
2022/04/24 10:30:22;;;;;;;12.95;8.77;;;;;;;;;;5026778;28;20610;-63
2022/04/24 10:32:48;;;;;;;13.52;8.73;;;;;;;;;;5021608;28;20063;-60
2022/04/24 10:35:19;;;;;;;10.82;8.27;;;;;;;;;;5027369;28;20493;-64
2022/04/24 10:37:47;;;;;;;11.63;8.63;;;;;;;;;;5022238;28;20049;-64
2022/04/24 10:40:14;;;;;;;12.27;9.13;;;;;;;;;;5016981;28;20025;-60
2022/04/24 10:42:42;;;;;;;10.30;8.68;;;;;;;;;;5022076;28;20100;-60
2022/04/24 10:45:19;;;;;;;9.52;7.72;;;;;;;;;;5025534;28;20025;-64
2022/04/24 10:47:52;;;;;;;12.05;7.45;;;;;;;;;;5027330;28;20029;-60
2022/04/24 10:50:19;;;;;;;10.43;7.50;;;;;;;;;;5023729;28;20104;-62
2022/04/24 10:52:45;;;;;;;12.07;8.27;;;;;;;;;;5025457;28;20033;-65
2022/04/24 10:55:13;;;;;;;10.20;8.10;;;;;;;;;;5020676;28;20492;-64
2022/04/24 10:57:47;;;;;;;12.85;8.00;;;;;;;;;;5024388;28;20040;-64
2022/04/24 11:00:19;;;;;;;8.55;7.70;;;;;;;;;;5019829;28;20025;-60
2022/04/24 11:02:45;;;;;;;10.43;8.85;;;;;;;;;;5025331;28;20021;-63
2022/04/24 11:05:11;;;;;;;15.23;7.93;;;;;;;;;;5017826;28;20029;-65
2022/04/24 11:07:38;;;;;;;9.35;7.97;;;;;;;;;;5019773;28;20036;-65
2022/04/24 11:10:08;;;;;;;11.73;9.25;;;;;;;;;;5024144;28;20083;-63
2022/04/24 11:12:34;;;;;;;9.00;7.40;;;;;;;;;;5020214;28;20029;-64
2022/04/24 11:15:04;;;;;;;11.35;7.35;;;;;;;;;;5013560;28;20036;-61
2022/04/24 11:17:30;;;;;;;9.02;7.72;;;;;;;;;;5022348;28;20121;-65
2022/04/24 11:20:00;;;;;;;8.80;7.47;;;;;;;;;;5020746;28;20080;-62
2022/04/24 11:22:26;;;;;;;8.57;7.30;;;;;;;;;;5022317;28;20022;-66
2022/04/24 11:24:55;;;;;;;8.88;7.70;;;;;;;;;;5024718;28;20400;-64
2022/04/24 11:27:25;;;;;;;10.23;7.68;;;;;;;;;;5018474;28;20029;-66
2022/04/24 11:29:51;;;;;;;8.30;7.05;;;;;;;;;;5016119;28;20029;-65
2022/04/24 11:32:18;;;;;;;12.25;6.13;;;;;;;;;;5025749;28;20032;-65
2022/04/24 11:34:45;;;;;;;9.30;6.90;;;;;;;;;;5022584;28;20029;-66
2022/04/24 11:37:11;;;;;;;10.80;7.50;;;;;;;;;;5018722;28;20025;-64
2022/04/24 11:39:40;;;;;;;9.15;7.30;;;;;;;;;;5019460;28;20026;-64
2022/04/24 11:42:06;;;;;;;9.10;7.15;;;;;;;;;;5019844;28;20033;-66
2022/04/24 11:50:15;;;;;;;10.90;6.40;;;;;;;;;;5016815;28;20376;-62
2022/04/24 11:52:46;;;;;;;10.18;6.80;;;;;;;;;;5018889;28;20030;-63
2022/04/24 11:55:13;;;;;;;6.82;5.75;;;;;;;;;;5021683;28;20481;-66
2022/04/24 11:57:41;;;;;;;8.75;6.50;;;;;;;;;;5010796;28;20426;-66
2022/04/24 12:00:14;;;;;;;7.78;6.35;;;;;;;;;;5015129;28;20029;-67
2022/04/24 12:02:40;;;;;;;;;;;;;;;;;;5022685;28;20542;-66
2022/04/24 12:05:09;;;;;;;8.43;5.70;;;;;;;;;;5023529;28;19909;-62
2022/04/24 12:07:36;;;;;;;10.65;5.57;;;;;;;;;;5021472;28;20327;-63
2022/04/24 12:10:02;;;;;;;9.25;5.90;;;;;;;;;;5019918;28;20036;-64
2022/04/24 12:12:28;;;;;;;8.70;6.75;;;;;;;;;;5022491;28;20037;-65
2022/04/24 12:14:55;;;;;;;8.52;6.07;;;;;;;;;;5016835;28;20031;-66
2022/04/24 12:17:23;;;;;;;7.45;5.70;;;;;;;;;;5018307;28;20398;-65
2022/04/24 12:19:56;;;;;;;5.72;5.13;;;;;;;;;;5022249;28;20033;-65
2022/04/24 12:22:34;;;;;;;6.97;5.03;;;;;;;;;;5021357;28;20025;-64
2022/04/24 12:25:07;;;;;;;7.15;4.53;;;;;;;;;;5022387;28;20087;-66
2022/04/24 12:27:33;;;;;;;6.88;5.10;;;;;;;;;;5020349;28;20045;-65
2022/04/24 12:30:02;;;;;;;5.10;4.60;;;;;;;;;;5020948;28;20026;-67
2022/04/24 12:32:28;;;;;;;7.43;5.28;;;;;;;;;;5016714;28;20079;-66
2022/04/24 12:34:54;;;;;;;8.23;6.30;;;;;;;;;;5019635;28;20424;-66
2022/04/24 12:37:30;;;;;;;7.30;6.15;;;;;;;;;;5024824;28;20083;-65
2022/04/24 12:39:57;;;;;;;9.23;6.20;;;;;;;;;;5019482;28;20022;-62
2022/04/24 12:42:24;;;;;;;7.13;6.30;;;;;;;;;;5021143;28;20018;-66
2022/04/24 12:44:50;;;;;;;8.25;6.30;;;;;;;;;;5020420;28;20013;-63
2022/04/24 12:47:16;;;;;;;8.38;6.65;;;;;;;;;;5027780;28;20108;-65
2022/04/24 12:49:46;;;;;;;12.25;6.97;;;;;;;;;;5028273;28;20499;-64
2022/04/24 12:52:12;;;;;;;8.68;6.45;;;;;;;;;;5021756;28;20148;-66
2022/04/24 12:54:38;;;;;;;7.97;6.20;;;;;;;;;;5027165;28;20056;-65
2022/04/24 12:57:05;;;;;;;7.50;6.70;;;;;;;;;;5024749;28;20502;-65
2022/04/24 12:59:32;;;;;;;7.05;6.18;;;;;;;;;;5024783;28;20163;-65
2022/04/24 13:01:58;;;;;;;7.85;6.07;;;;;;;;;;5026366;28;20338;-66
2022/04/24 13:04:24;;;;;;;9.43;6.82;;;;;;;;;;5023523;28;20152;-67
2022/04/24 13:06:50;;;;;;;8.20;6.35;;;;;;;;;;5025203;28;20160;-62
2022/04/24 13:09:17;;;;;;;8.13;6.35;;;;;;;;;;5028153;28;20033;-64
2022/04/24 13:11:43;;;;;;;12.07;6.18;;;;;;;;;;5027498;28;20025;-64
2022/04/24 13:14:09;;;;;;;9.25;6.80;;;;;;;;;;5019795;28;20297;-61
2022/04/24 13:19:19;;;;;;;7.65;6.85;;;;;;;;;;5022043;28;20080;-64
2022/04/24 13:21:45;;;;;;;7.38;6.30;;;;;;;;;;5025338;28;20389;-64
2022/04/24 13:24:11;;;;;;;8.70;5.90;;;;;;;;;;5022478;28;20014;-62
2022/04/24 13:26:38;;;;;;;8.70;6.50;;;;;;;;;;5021405;28;20277;-65
2022/04/24 13:29:04;;;;;;;8.18;5.80;;;;;;;;;;5030033;28;20025;-65
2022/04/24 13:31:29;;;;;;;7.32;5.63;;;;;;;;;;5022839;28;20445;-66
2022/04/24 13:33:55;;;;;;;8.23;6.05;;;;;;;;;;5026956;28;20037;-66
2022/04/24 13:36:21;;;;;;;9.50;6.22;;;;;;;;;;5026834;28;20018;-66